createdAt,value
2023-04-14T00:01:56.833Z,10.60
2023-04-14T00:07:59.594Z,10.50
2023-04-14T00:14:03.445Z,10.40
2023-04-14T00:20:06.417Z,10.30
2023-04-14T00:26:08.910Z,10.20
2023-04-14T00:32:13.284Z,10.10
2023-04-14T00:38:15.704Z,10.10
2023-04-14T00:44:18.001Z,10.00
2023-04-14T00:50:21.891Z,9.90
2023-04-14T00:56:26.913Z,9.90
2023-04-14T01:02:29.831Z,9.90
2023-04-14T01:08:32.537Z,9.80
2023-04-14T01:15:09.252Z,9.70
2023-04-14T01:21:17.735Z,9.70
2023-04-14T01:28:05.004Z,9.70
2023-04-14T01:34:14.864Z,9.60
2023-04-14T01:40:19.668Z,9.50
2023-04-14T01:46:23.080Z,9.40
2023-04-14T01:52:27.688Z,9.40
2023-04-14T01:58:32.552Z,9.30
2023-04-14T02:04:38.184Z,9.20
2023-04-14T02:10:44.553Z,9.20
2023-04-14T02:16:51.245Z,9.00
2023-04-14T02:22:53.771Z,8.90
2023-04-14T02:29:16.421Z,8.80
2023-04-14T02:35:27.296Z,8.70
2023-04-14T02:41:32.211Z,8.60
2023-04-14T02:47:37.695Z,8.60
2023-04-14T02:53:40.893Z,8.50
2023-04-14T02:59:59.062Z,8.40
2023-04-14T03:06:02.678Z,8.30
2023-04-14T03:12:06.952Z,8.30
2023-04-14T03:18:11.625Z,8.30
2023-04-14T03:24:18.533Z,8.20
2023-04-14T03:30:25.680Z,8.20
2023-04-14T03:36:30.066Z,8.30
2023-04-14T03:42:35.879Z,8.30
2023-04-14T03:48:43.109Z,8.40
2023-04-14T03:54:51.290Z,8.60
2023-04-14T04:00:54.653Z,8.90
2023-04-14T04:06:57.283Z,9.20
2023-04-14T04:13:01.631Z,9.60
2023-04-14T04:19:08.985Z,9.90
2023-04-14T04:25:13.523Z,10.30
2023-04-14T04:31:24.219Z,10.40
2023-04-14T04:37:29.561Z,10.60
2023-04-14T04:43:32.769Z,10.90
2023-04-14T04:49:35.450Z,11.00
2023-04-14T04:55:39.063Z,11.30
2023-04-14T05:01:42.014Z,12.00
2023-04-14T05:07:44.568Z,16.10
2023-04-14T05:13:47.715Z,20.40
2023-04-14T05:19:50.093Z,22.40
2023-04-14T05:25:52.677Z,23.80
2023-04-14T05:31:54.965Z,23.00
2023-04-14T05:37:57.420Z,22.50
2023-04-14T05:43:59.868Z,23.90
2023-04-14T05:50:04.355Z,23.70
2023-04-14T05:56:07.017Z,25.60
2023-04-14T06:02:09.408Z,27.00
2023-04-14T06:08:11.791Z,26.40
2023-04-14T06:14:14.277Z,27.60
2023-04-14T06:20:16.718Z,29.20
2023-04-14T06:26:19.033Z,27.70
2023-04-14T06:32:21.516Z,27.20
2023-04-14T06:38:25.673Z,27.80
2023-04-14T06:44:27.780Z,28.90
2023-04-14T06:50:30.119Z,28.70
2023-04-14T06:56:32.406Z,29.70
2023-04-14T07:02:34.616Z,30.50
2023-04-14T07:08:37.041Z,31.00
2023-04-14T07:14:39.434Z,30.40
2023-04-14T07:20:42.320Z,30.70
2023-04-14T07:26:44.655Z,31.50
2023-04-14T07:32:47.038Z,29.70
2023-04-14T07:38:52.385Z,29.40
2023-04-14T07:44:54.604Z,29.80
2023-04-14T07:50:58.411Z,29.60
2023-04-14T07:57:01.179Z,27.30
2023-04-14T08:03:03.855Z,27.80
2023-04-14T08:09:06.422Z,29.50
2023-04-14T08:15:11.969Z,29.20
2023-04-14T08:21:14.270Z,30.50
2023-04-14T08:27:16.943Z,30.40
2023-04-14T08:33:19.494Z,27.20
2023-04-14T08:39:21.963Z,25.20
2023-04-14T08:45:24.612Z,25.30
2023-04-14T08:51:46.093Z,25.10
2023-04-14T08:57:49.559Z,26.90
2023-04-14T09:03:52.840Z,28.50
2023-04-14T09:09:56.617Z,27.80
2023-04-14T09:16:00.499Z,29.90
2023-04-14T09:22:03.029Z,28.30
2023-04-14T09:28:05.589Z,26.90
2023-04-14T09:34:17.686Z,25.60
2023-04-14T09:40:29.634Z,24.70
2023-04-14T09:46:33.343Z,26.00
2023-04-14T09:52:45.678Z,27.90
2023-04-14T09:58:49.405Z,28.70
2023-04-14T10:05:05.812Z,26.40
2023-04-14T10:11:23.236Z,24.10
2023-04-14T10:17:27.834Z,23.20
2023-04-14T10:23:32.711Z,22.30
2023-04-14T10:29:34.894Z,22.20
2023-04-14T10:35:39.972Z,21.90
2023-04-14T10:41:48.700Z,21.60
2023-04-14T10:47:52.304Z,21.60
2023-04-14T10:53:56.023Z,22.20
2023-04-14T10:59:59.835Z,22.40
2023-04-14T11:06:02.687Z,22.60
2023-04-14T11:12:25.146Z,23.20
2023-04-14T11:18:30.563Z,25.20
2023-04-14T11:24:32.899Z,26.70
2023-04-14T11:30:35.485Z,27.40
2023-04-14T11:36:39.721Z,25.60
2023-04-14T11:42:49.395Z,24.30
2023-04-14T11:48:58.489Z,24.00
2023-04-14T11:55:02.426Z,23.00
2023-04-14T12:01:05.273Z,22.40
2023-04-14T12:07:18.595Z,22.50
2023-04-14T12:13:21.772Z,23.70
2023-04-14T12:19:24.324Z,25.10
2023-04-14T12:25:26.575Z,25.60
2023-04-14T12:31:32.494Z,25.20
2023-04-14T12:37:36.113Z,25.40
2023-04-14T12:43:41.066Z,25.40
2023-04-14T12:49:43.390Z,25.60
2023-04-14T12:55:45.683Z,25.10
2023-04-14T13:01:51.344Z,25.40
2023-04-14T13:07:53.898Z,24.40
2023-04-14T13:13:57.695Z,24.20
2023-04-14T13:20:00.255Z,23.60
2023-04-14T13:26:02.804Z,23.00
2023-04-14T13:32:09.504Z,22.90
2023-04-14T13:38:11.965Z,22.70
2023-04-14T13:44:14.126Z,22.70
2023-04-14T13:50:17.246Z,22.60
2023-04-14T13:56:23.126Z,22.80
2023-04-14T14:02:25.450Z,22.50
2023-04-14T14:08:27.870Z,22.70
2023-04-14T14:14:30.153Z,23.10
2023-04-14T14:20:32.940Z,23.50
2023-04-14T14:26:35.249Z,23.90
2023-04-14T14:32:38.271Z,23.50
2023-04-14T14:38:40.885Z,23.30
2023-04-14T14:44:43.382Z,23.00
2023-04-14T14:50:46.058Z,22.80
2023-04-14T14:56:48.298Z,22.60
2023-04-14T15:02:51.220Z,22.40
2023-04-14T15:08:54.075Z,22.50
2023-04-14T15:14:56.660Z,22.40
2023-04-14T15:20:58.860Z,22.30
2023-04-14T15:27:03.154Z,22.30
2023-04-14T15:33:05.991Z,22.30
2023-04-14T15:39:08.545Z,22.20
2023-04-14T15:45:12.069Z,22.00
2023-04-14T15:51:14.627Z,21.90
2023-04-14T15:57:17.444Z,21.70
2023-04-14T16:03:20.076Z,21.50
2023-04-14T16:09:22.596Z,21.40
2023-04-14T16:15:25.724Z,21.30
2023-04-14T16:21:28.137Z,21.20
2023-04-14T16:27:30.811Z,20.70
2023-04-14T16:33:33.285Z,20.10
2023-04-14T16:39:35.874Z,18.90
2023-04-14T16:45:38.062Z,18.30
2023-04-14T16:51:40.613Z,17.70
2023-04-14T16:57:43.051Z,17.30
2023-04-14T17:03:45.485Z,17.10
2023-04-14T17:09:48.371Z,16.90
2023-04-14T17:15:58.797Z,16.80
2023-04-14T17:22:10.924Z,16.60
2023-04-14T17:28:13.179Z,16.50
2023-04-14T17:34:18.838Z,16.40
2023-04-14T17:40:21.268Z,16.10
2023-04-14T17:46:33.762Z,15.70
2023-04-14T17:52:36.344Z,15.20
2023-04-14T17:58:38.855Z,15.10
2023-04-14T18:04:41.648Z,15.00
2023-04-14T18:10:45.651Z,15.00
2023-04-14T18:16:48.380Z,15.00
2023-04-14T18:22:52.938Z,14.90
2023-04-14T18:28:56.633Z,14.80
2023-04-14T18:34:59.433Z,14.80
2023-04-14T18:41:04.187Z,14.80
2023-04-14T18:47:06.587Z,14.70
2023-04-14T18:53:09.584Z,14.70
2023-04-14T18:59:12.395Z,14.60
2023-04-14T19:05:17.932Z,14.50
2023-04-14T19:11:21.121Z,14.40
2023-04-14T19:17:23.833Z,14.40
2023-04-14T19:23:26.306Z,14.40
2023-04-14T19:29:28.832Z,14.30
2023-04-14T19:35:31.480Z,14.30
2023-04-14T19:41:34.128Z,14.40
2023-04-14T19:47:36.822Z,14.40
2023-04-14T19:53:39.494Z,14.40
2023-04-14T19:59:41.896Z,14.30
2023-04-14T20:05:44.547Z,14.40
2023-04-14T20:11:47.378Z,14.30
2023-04-14T20:17:49.722Z,14.20
2023-04-14T20:23:51.908Z,14.10
2023-04-14T20:29:54.061Z,14.00
2023-04-14T20:35:56.804Z,14.00
2023-04-14T20:41:59.271Z,14.00
2023-04-14T20:48:01.996Z,13.90
2023-04-14T20:54:04.698Z,13.80
2023-04-14T21:00:10.892Z,13.70
2023-04-14T21:06:13.425Z,13.60
2023-04-14T21:12:17.059Z,13.60
2023-04-14T21:18:19.595Z,13.60
2023-04-14T21:24:21.907Z,13.60
2023-04-14T21:30:24.170Z,13.60
2023-04-14T21:36:26.740Z,13.50
2023-04-14T21:42:29.324Z,13.40
2023-04-14T21:48:31.832Z,13.40
2023-04-14T21:54:35.933Z,13.50
2023-04-14T22:00:38.264Z,13.50
2023-04-14T22:06:40.824Z,13.50
2023-04-14T22:12:44.491Z,13.50
2023-04-14T22:18:47.123Z,13.50
2023-04-14T22:24:51.021Z,13.60
2023-04-14T22:30:53.436Z,13.60
2023-04-14T22:36:55.932Z,13.60
2023-04-14T22:42:58.266Z,13.60
2023-04-14T22:49:00.830Z,13.60
2023-04-14T22:55:03.695Z,13.70
2023-04-14T23:01:21.499Z,13.60
2023-04-14T23:07:25.007Z,13.60
2023-04-14T23:13:27.961Z,13.60
2023-04-14T23:19:30.422Z,13.60
2023-04-14T23:25:33.048Z,13.60
2023-04-14T23:31:35.324Z,13.70
2023-04-14T23:37:37.810Z,13.60
2023-04-14T23:43:40.496Z,13.60
2023-04-14T23:49:42.997Z,13.60
2023-04-14T23:55:45.375Z,13.60
